Kezdőlap
METAR-TAF:

METAR-TAF

Repülőterek :

Massena, New York, Amerikai Egyesült Államok

földrajzi szélesség: 44-56-09N, földrajzi hosszúság: 074-50-44W, magasság: 66 m

Jelenlegi meteorológiai megfigyelések

A jelentés 50 perccel ezelõtt készült, 16:53 UTC
Délnyugati szél 15 kt
Hőmérséklet 5°C
Páratartalom 52%
Légköri nyomás 1017 hPa
Látótávolság: 16.1 km
Derült ég

METAR: KMSS 231653Z AUTO 22015KT 10SM CLR 05/M04 A3003 RMK AO2 SLP174 T00501039

Idő: 12:43 (17:43 UTC)

Előrejelzés

A jelentés 6 órával és 23 perccel ezelõtt készült, 11:20 UTC
Az előrejelzés 23-én 12 óra UTC és 24-én 12 óra UTC között érvényes
Délnyugati szél 8 kt
Látótávolság: 10 km
Kevés felhő 20000 lábon

TAF: KMSS 231120Z 2312/2412 22008KT P6SM FEW200

Meteorológiai megfigyelések és előrejelzések több, mint 4000 repülőtéren (METAR és TAF jelentéseket).

A térképen piros és sárga pontok jelzik az elérhető meteorológiai állomásokat.

Mozgassa az egeret a pont fölött, hogy megjelenjen az állomás neve.

Azután kattintson az időjárási megfigyelések és előrejelzések megtekintéséhez.

A térkép megváltoztatása: kattintson a fekete keresztel jelölt zöld gombra ráközelítéshez, a vonallal jelölt zöld gombra távolításhoz, vagy a zöld nyilakra a szomszédos térképek eléréséhez.


METAR-TAF: